Time;durP1;ratioP1;P1;durP2;ratioP2;P2;SDS_P1;SDS_P2;PMS_P1;PMS_P2;Temp;Humidity;BMP_temperature;BMP_pressure;BME280_temperature;BME280_humidity;BME280_pressure;Samples;Min_cycle;Max_cycle;Signal;HPM_P1;HPM_P2
2021/05/14 00:00:39;;;;;;;13.05;10.75;;;;;;;;;;5114853;28;20028;-63
2021/05/14 00:03:04;;;;;;;12.70;11.40;;;;;;;;;;5116043;28;20043;-63
2021/05/14 00:05:30;;;;;;;10.13;9.15;;;;;;;;;;5116054;28;20067;-62
2021/05/14 00:07:55;;;;;;;11.20;9.80;;;;;;;;;;5115649;28;20031;-62
2021/05/14 00:10:22;;;;;;;13.70;11.32;;;;;;;;;;5115490;28;20027;-62
2021/05/14 00:12:52;;;;;;;12.15;10.38;;;;;;;;;;5115484;28;20058;-62
2021/05/14 00:15:17;;;;;;;14.50;11.68;;;;;;;;;;5115524;28;20062;-62
2021/05/14 00:17:43;;;;;;;13.07;11.05;;;;;;;;;;5115521;28;20047;-62
2021/05/14 00:20:09;;;;;;;11.00;9.88;;;;;;;;;;5115402;28;20077;-62
2021/05/14 00:22:34;;;;;;;12.75;10.50;;;;;;;;;;5115186;28;20474;-62
2021/05/14 00:25:00;;;;;;;10.60;9.50;;;;;;;;;;5113872;28;20126;-63
2021/05/14 00:27:25;;;;;;;11.18;9.95;;;;;;;;;;5114197;28;20027;-63
2021/05/14 00:29:51;;;;;;;12.88;10.38;;;;;;;;;;5115334;28;20047;-63
2021/05/14 00:32:16;;;;;;;11.15;10.02;;;;;;;;;;5114659;28;20054;-62
2021/05/14 00:34:42;;;;;;;12.35;10.93;;;;;;;;;;5115347;28;20513;-63
2021/05/14 00:37:07;;;;;;;12.20;10.60;;;;;;;;;;5115537;28;20033;-62
2021/05/14 00:39:32;;;;;;;12.57;11.05;;;;;;;;;;5115319;28;20024;-62
2021/05/14 00:41:58;;;;;;;11.38;10.27;;;;;;;;;;5114027;28;20019;-62
2021/05/14 00:44:48;;;;;;;12.02;10.77;;;;;;;;;;5114986;28;20033;-62
2021/05/14 00:47:15;;;;;;;11.63;10.07;;;;;;;;;;5113979;28;20020;-62
2021/05/14 00:49:43;;;;;;;12.45;11.15;;;;;;;;;;5114883;28;20261;-62
2021/05/14 00:52:09;;;;;;;13.10;11.68;;;;;;;;;;5114839;28;20038;-63
2021/05/14 00:54:34;;;;;;;13.57;11.60;;;;;;;;;;5115065;28;20473;-63
2021/05/14 00:57:00;;;;;;;13.57;12.07;;;;;;;;;;5113749;28;20043;-62
2021/05/14 00:59:26;;;;;;;13.43;11.05;;;;;;;;;;5114770;28;20019;-62
2021/05/14 01:01:52;;;;;;;14.38;10.88;;;;;;;;;;5114884;28;20054;-62
2021/05/14 01:04:17;;;;;;;15.23;11.55;;;;;;;;;;5114420;28;20020;-63
2021/05/14 01:06:43;;;;;;;13.38;11.98;;;;;;;;;;5114678;28;20027;-63
2021/05/14 01:09:09;;;;;;;13.95;11.80;;;;;;;;;;5114138;28;20076;-63
2021/05/14 01:11:35;;;;;;;13.60;11.10;;;;;;;;;;5114544;28;20032;-63
2021/05/14 01:14:00;;;;;;;13.65;11.32;;;;;;;;;;5114567;28;20022;-63
2021/05/14 01:16:26;;;;;;;15.23;12.45;;;;;;;;;;5113141;28;20367;-62
2021/05/14 01:18:53;;;;;;;13.48;12.02;;;;;;;;;;5114630;28;20024;-62
2021/05/14 01:21:19;;;;;;;16.58;12.27;;;;;;;;;;5114467;28;20031;-63
2021/05/14 01:23:44;;;;;;;14.55;12.15;;;;;;;;;;5114526;28;20024;-63
2021/05/14 01:26:11;;;;;;;15.05;12.07;;;;;;;;;;5113434;28;20058;-64
2021/05/14 01:28:36;;;;;;;13.52;11.73;;;;;;;;;;5114464;28;20020;-64
2021/05/14 01:31:02;;;;;;;14.32;12.60;;;;;;;;;;5112991;28;20035;-64
2021/05/14 01:33:27;;;;;;;14.77;12.30;;;;;;;;;;5114159;28;20031;-63
2021/05/14 01:35:53;;;;;;;14.07;11.43;;;;;;;;;;5113083;28;20049;-62
2021/05/14 01:38:18;;;;;;;12.82;11.23;;;;;;;;;;5114154;28;20023;-62
2021/05/14 01:40:44;;;;;;;13.75;11.07;;;;;;;;;;5114298;28;20056;-62
2021/05/14 01:43:09;;;;;;;14.63;12.23;;;;;;;;;;5112782;28;20019;-63
2021/05/14 01:45:35;;;;;;;14.95;12.27;;;;;;;;;;5114124;28;20039;-62
2021/05/14 01:48:00;;;;;;;15.80;12.73;;;;;;;;;;5114057;28;20019;-62
2021/05/14 01:50:26;;;;;;;13.90;11.85;;;;;;;;;;5113920;28;20053;-62
2021/05/14 01:52:51;;;;;;;12.55;11.23;;;;;;;;;;5113744;28;20035;-63
2021/05/14 01:55:17;;;;;;;13.35;11.95;;;;;;;;;;5112380;28;20027;-62
2021/05/14 01:57:42;;;;;;;18.00;12.32;;;;;;;;;;5113469;28;20483;-62
2021/05/14 02:00:08;;;;;;;14.23;12.25;;;;;;;;;;5114153;28;20093;-62
2021/05/14 02:02:35;;;;;;;15.50;12.60;;;;;;;;;;5113901;28;20016;-62
2021/05/14 02:05:01;;;;;;;15.20;11.85;;;;;;;;;;5113202;28;20172;-62
2021/05/14 02:07:26;;;;;;;16.35;11.77;;;;;;;;;;5113906;28;20031;-62
2021/05/14 02:09:53;;;;;;;13.40;10.93;;;;;;;;;;5113890;28;20035;-63
2021/05/14 02:12:19;;;;;;;14.80;12.05;;;;;;;;;;5113910;28;20012;-62
2021/05/14 02:14:44;;;;;;;14.65;12.07;;;;;;;;;;5112369;28;20477;-62
2021/05/14 02:17:09;;;;;;;13.82;12.20;;;;;;;;;;5113562;28;20024;-62
2021/05/14 02:19:36;;;;;;;13.98;12.07;;;;;;;;;;5112623;28;20024;-62
2021/05/14 02:22:01;;;;;;;15.93;13.18;;;;;;;;;;5113569;28;20008;-62
2021/05/14 02:24:27;;;;;;;17.27;12.45;;;;;;;;;;5113684;28;20034;-62
2021/05/14 02:26:52;;;;;;;15.85;12.80;;;;;;;;;;5113643;28;20023;-63
2021/05/14 02:29:18;;;;;;;12.38;11.00;;;;;;;;;;5113648;28;20035;-62
2021/05/14 02:31:43;;;;;;;15.43;12.23;;;;;;;;;;5114675;28;20051;-64
2021/05/14 02:34:09;;;;;;;15.25;11.82;;;;;;;;;;5114755;28;20374;-62
2021/05/14 02:36:34;;;;;;;16.15;13.50;;;;;;;;;;5113592;28;20378;-62
2021/05/14 02:39:00;;;;;;;17.83;13.15;;;;;;;;;;5113736;28;20122;-62
2021/05/14 02:41:25;;;;;;;16.13;12.82;;;;;;;;;;5113687;28;20020;-62
2021/05/14 02:43:51;;;;;;;14.93;13.05;;;;;;;;;;5112561;28;20035;-63
2021/05/14 02:46:16;;;;;;;15.35;11.75;;;;;;;;;;5113468;28;20023;-62
2021/05/14 02:48:42;;;;;;;14.57;12.52;;;;;;;;;;5113226;28;20032;-63
2021/05/14 02:51:07;;;;;;;14.77;12.70;;;;;;;;;;5111851;28;20020;-63
2021/05/14 02:53:34;;;;;;;13.80;12.38;;;;;;;;;;5113676;28;20019;-63
2021/05/14 02:56:00;;;;;;;13.35;11.95;;;;;;;;;;5113516;28;20024;-62
2021/05/14 02:58:25;;;;;;;13.90;12.02;;;;;;;;;;5113100;28;20073;-62
2021/05/14 03:00:51;;;;;;;16.80;13.15;;;;;;;;;;5113522;28;20016;-62
2021/05/14 03:03:16;;;;;;;17.23;12.43;;;;;;;;;;5113249;28;20055;-63
2021/05/14 03:05:42;;;;;;;15.35;12.90;;;;;;;;;;5113474;28;20046;-62
2021/05/14 03:08:07;;;;;;;15.23;12.93;;;;;;;;;;5114262;28;20342;-63
2021/05/14 03:10:33;;;;;;;13.40;12.00;;;;;;;;;;5116832;28;20018;-62
2021/05/14 03:12:58;;;;;;;17.75;12.52;;;;;;;;;;5116675;28;20034;-63
2021/05/14 03:15:24;;;;;;;16.45;11.52;;;;;;;;;;5115599;28;20016;-62
2021/05/14 03:17:49;;;;;;;14.32;11.15;;;;;;;;;;5115579;28;20031;-62
2021/05/14 03:20:15;;;;;;;15.80;11.93;;;;;;;;;;5116467;28;20015;-63
2021/05/14 03:22:40;;;;;;;13.82;12.35;;;;;;;;;;5116505;28;20039;-63
2021/05/14 03:25:08;;;;;;;15.48;11.85;;;;;;;;;;5116436;28;20483;-62
2021/05/14 03:27:33;;;;;;;13.43;11.82;;;;;;;;;;5116481;27;20040;-62
2021/05/14 03:30:00;;;;;;;17.33;12.10;;;;;;;;;;5115255;28;20016;-62
2021/05/14 03:32:25;;;;;;;13.05;11.68;;;;;;;;;;5116386;28;20035;-63
2021/05/14 03:34:51;;;;;;;14.23;12.13;;;;;;;;;;5116177;28;20039;-63
2021/05/14 03:37:16;;;;;;;14.52;11.75;;;;;;;;;;5116372;28;20073;-63
2021/05/14 03:39:49;;;;;;;13.52;11.35;;;;;;;;;;5116449;28;20442;-62
2021/05/14 03:42:18;;;;;;;13.07;11.57;;;;;;;;;;5116571;28;20355;-62
2021/05/14 03:44:45;;;;;;;13.18;11.77;;;;;;;;;;5116330;28;20016;-62
2021/05/14 03:47:10;;;;;;;14.43;11.90;;;;;;;;;;5114925;28;20118;-63
2021/05/14 03:49:36;;;;;;;13.63;11.80;;;;;;;;;;5114571;28;20430;-62
2021/05/14 03:52:12;;;;;;;13.55;11.80;;;;;;;;;;5116527;28;20035;-62
2021/05/14 03:54:39;;;;;;;13.18;11.18;;;;;;;;;;5116043;28;20063;-62
2021/05/14 03:57:04;;;;;;;13.52;11.70;;;;;;;;;;5115943;28;20043;-63
2021/05/14 03:59:30;;;;;;;12.90;11.48;;;;;;;;;;5115923;28;20485;-63
2021/05/14 04:01:56;;;;;;;13.43;10.82;;;;;;;;;;5115918;28;20023;-63
2021/05/14 04:04:23;;;;;;;15.15;11.55;;;;;;;;;;5115780;28;20350;-62
2021/05/14 04:06:48;;;;;;;12.75;10.98;;;;;;;;;;5116033;28;20106;-62
2021/05/14 04:09:18;;;;;;;11.55;10.45;;;;;;;;;;5115991;28;20111;-62
2021/05/14 04:12:06;;;;;;;13.27;10.75;;;;;;;;;;5115912;28;20019;-62
2021/05/14 04:14:33;;;;;;;13.95;11.05;;;;;;;;;;5115982;27;20023;-62
2021/05/14 04:16:59;;;;;;;10.73;9.63;;;;;;;;;;5115777;28;20011;-63
2021/05/14 04:19:26;;;;;;;12.23;10.48;;;;;;;;;;5114998;28;20027;-62
2021/05/14 04:21:53;;;;;;;10.45;9.43;;;;;;;;;;5115607;27;20019;-63
2021/05/14 04:24:20;;;;;;;10.27;9.25;;;;;;;;;;5114272;28;20024;-62
2021/05/14 04:26:46;;;;;;;12.45;10.27;;;;;;;;;;5115535;28;20016;-62
2021/05/14 04:29:12;;;;;;;11.32;10.20;;;;;;;;;;5115520;28;20035;-62
2021/05/14 04:31:42;;;;;;;12.30;10.05;;;;;;;;;;5115441;28;20020;-62
2021/05/14 04:34:08;;;;;;;13.77;10.38;;;;;;;;;;5114366;28;20131;-63
2021/05/14 04:36:33;;;;;;;12.68;10.85;;;;;;;;;;5113730;28;20114;-62
2021/05/14 04:38:59;;;;;;;12.50;11.00;;;;;;;;;;5115142;28;20046;-62
2021/05/14 04:41:24;;;;;;;12.30;11.13;;;;;;;;;;5115266;28;20381;-62
2021/05/14 04:43:50;;;;;;;13.23;11.75;;;;;;;;;;5115136;28;20036;-62
2021/05/14 04:46:15;;;;;;;12.65;10.68;;;;;;;;;;5114618;28;20072;-62
2021/05/14 04:48:41;;;;;;;10.82;9.18;;;;;;;;;;5105070;28;20116;-62
2021/05/14 04:51:08;;;;;;;13.23;11.02;;;;;;;;;;5093039;28;20070;-62
2021/05/14 04:53:36;;;;;;;13.68;11.00;;;;;;;;;;5093104;28;20028;-62
2021/05/14 04:56:01;;;;;;;13.52;11.93;;;;;;;;;;5093142;28;20462;-63
2021/05/14 04:58:27;;;;;;;12.07;10.40;;;;;;;;;;5094365;28;20032;-63
2021/05/14 05:00:52;;;;;;;13.07;11.25;;;;;;;;;;5092827;28;20424;-62
2021/05/14 05:03:18;;;;;;;11.27;9.40;;;;;;;;;;5094024;28;20024;-62
2021/05/14 05:05:43;;;;;;;11.35;10.20;;;;;;;;;;5093846;28;20020;-63
2021/05/14 05:08:09;;;;;;;13.32;11.75;;;;;;;;;;5093579;28;20066;-62
2021/05/14 05:10:34;;;;;;;12.20;10.88;;;;;;;;;;5093959;28;20466;-62
2021/05/14 05:13:00;;;;;;;13.45;11.57;;;;;;;;;;5092490;28;20042;-62
2021/05/14 05:15:25;;;;;;;12.75;10.90;;;;;;;;;;5093538;28;20012;-63
2021/05/14 05:17:51;;;;;;;12.23;10.73;;;;;;;;;;5093507;28;20027;-63
2021/05/14 05:20:16;;;;;;;10.15;9.10;;;;;;;;;;5093622;28;20030;-63
2021/05/14 05:22:42;;;;;;;10.57;9.48;;;;;;;;;;5092217;28;20032;-63
2021/05/14 05:25:07;;;;;;;12.98;9.18;;;;;;;;;;5092346;28;20016;-63
2021/05/14 05:27:33;;;;;;;10.10;8.98;;;;;;;;;;5093629;28;20485;-63
2021/05/14 05:29:58;;;;;;;12.10;9.63;;;;;;;;;;5092380;28;20384;-62
2021/05/14 05:32:25;;;;;;;10.60;9.02;;;;;;;;;;5093068;28;20027;-63
2021/05/14 05:34:50;;;;;;;12.40;9.75;;;;;;;;;;5093310;28;20048;-63
2021/05/14 05:37:16;;;;;;;12.27;10.05;;;;;;;;;;5093523;28;20035;-63
2021/05/14 05:39:42;;;;;;;13.23;10.20;;;;;;;;;;5093294;28;20111;-63
2021/05/14 05:42:07;;;;;;;14.38;10.70;;;;;;;;;;5093501;28;20428;-63
2021/05/14 05:44:33;;;;;;;13.15;10.30;;;;;;;;;;5093346;28;20058;-63
2021/05/14 05:46:58;;;;;;;14.48;11.38;;;;;;;;;;5092086;28;20024;-62
2021/05/14 05:49:24;;;;;;;14.25;11.32;;;;;;;;;;5093304;28;20027;-62
2021/05/14 05:51:50;;;;;;;12.73;10.73;;;;;;;;;;5093375;28;20027;-62
2021/05/14 05:54:15;;;;;;;12.38;10.82;;;;;;;;;;5093219;28;20420;-62
2021/05/14 05:56:45;;;;;;;11.20;9.85;;;;;;;;;;5093374;28;20024;-62
2021/05/14 05:59:14;;;;;;;13.13;11.75;;;;;;;;;;5093116;28;20043;-62
2021/05/14 06:01:39;;;;;;;10.77;9.68;;;;;;;;;;5091803;28;20009;-62
2021/05/14 06:04:05;;;;;;;14.00;11.75;;;;;;;;;;5093120;28;20442;-62
2021/05/14 06:06:30;;;;;;;9.10;7.68;;;;;;;;;;5093254;28;20028;-62
2021/05/14 06:08:56;;;;;;;15.40;11.57;;;;;;;;;;5093028;28;20034;-62
2021/05/14 06:11:21;;;;;;;12.80;10.07;;;;;;;;;;5093109;28;20027;-62
2021/05/14 06:13:47;;;;;;;12.32;10.05;;;;;;;;;;5093109;28;20085;-62
2021/05/14 06:16:13;;;;;;;13.13;10.70;;;;;;;;;;5093210;28;20012;-62
2021/05/14 06:18:43;;;;;;;12.40;10.10;;;;;;;;;;5093043;28;20031;-62
2021/05/14 06:21:10;;;;;;;11.35;9.65;;;;;;;;;;5093141;28;20531;-62
2021/05/14 06:23:36;;;;;;;11.68;9.48;;;;;;;;;;5093039;28;20501;-62
2021/05/14 06:26:01;;;;;;;10.95;9.15;;;;;;;;;;5091769;28;20024;-62
2021/05/14 06:28:27;;;;;;;13.13;9.40;;;;;;;;;;5093189;28;20484;-62
2021/05/14 06:30:52;;;;;;;11.95;9.73;;;;;;;;;;5091504;28;20119;-62
2021/05/14 06:33:18;;;;;;;10.35;8.80;;;;;;;;;;5092100;28;21446;-62
2021/05/14 06:35:47;;;;;;;12.98;10.18;;;;;;;;;;5093195;28;20038;-62
2021/05/14 06:38:13;;;;;;;16.23;11.63;;;;;;;;;;5091697;28;20111;-62
2021/05/14 06:40:38;;;;;;;10.20;9.18;;;;;;;;;;5092868;28;20107;-62
2021/05/14 06:43:04;;;;;;;11.25;10.05;;;;;;;;;;5095335;28;20067;-62
2021/05/14 06:45:29;;;;;;;10.60;9.15;;;;;;;;;;5096611;28;20024;-62
2021/05/14 06:48:08;;;;;;;11.75;9.75;;;;;;;;;;5096569;28;20040;-62
2021/05/14 06:50:34;;;;;;;10.88;9.63;;;;;;;;;;5096709;28;20082;-62
2021/05/14 06:53:04;;;;;;;14.75;10.35;;;;;;;;;;5096576;28;20065;-62
2021/05/14 06:55:29;;;;;;;13.38;11.52;;;;;;;;;;5096513;28;20020;-62
2021/05/14 06:57:55;;;;;;;12.98;9.18;;;;;;;;;;5095970;28;20019;-62
2021/05/14 07:00:20;;;;;;;9.38;8.43;;;;;;;;;;5096349;28;20028;-62
2021/05/14 07:02:46;;;;;;;10.10;8.15;;;;;;;;;;5096223;28;20023;-63
2021/05/14 07:05:16;;;;;;;12.65;9.48;;;;;;;;;;5096336;28;20385;-63
2021/05/14 07:07:41;;;;;;;12.27;8.52;;;;;;;;;;5096245;28;20024;-63
2021/05/14 07:10:08;;;;;;;13.27;10.00;;;;;;;;;;5096268;28;20417;-62
2021/05/14 07:12:35;;;;;;;10.15;8.60;;;;;;;;;;5096102;28;20029;-62
2021/05/14 07:15:01;;;;;;;11.23;9.27;;;;;;;;;;5096087;28;20036;-62
2021/05/14 07:17:27;;;;;;;11.15;9.60;;;;;;;;;;5096158;28;20027;-62
2021/05/14 07:19:53;;;;;;;11.73;10.20;;;;;;;;;;5095951;28;20024;-62
2021/05/14 07:22:19;;;;;;;11.27;9.65;;;;;;;;;;5096007;28;20008;-62
2021/05/14 07:24:44;;;;;;;11.68;9.80;;;;;;;;;;5095871;28;20367;-62
2021/05/14 07:27:10;;;;;;;10.30;8.38;;;;;;;;;;5095784;28;20035;-63
2021/05/14 07:29:35;;;;;;;13.35;10.82;;;;;;;;;;5095972;28;20030;-63
2021/05/14 07:32:01;;;;;;;9.70;8.70;;;;;;;;;;5095860;28;20016;-63
2021/05/14 07:34:26;;;;;;;9.90;8.95;;;;;;;;;;5095345;28;20036;-62
2021/05/14 07:36:52;;;;;;;11.32;9.27;;;;;;;;;;5095687;28;20206;-62
2021/05/14 07:39:17;;;;;;;12.20;10.90;;;;;;;;;;5095670;28;20428;-63
2021/05/14 07:41:43;;;;;;;13.98;11.35;;;;;;;;;;5095541;28;20020;-62
2021/05/14 07:44:08;;;;;;;10.18;8.95;;;;;;;;;;5095539;28;20077;-62
2021/05/14 07:46:34;;;;;;;12.20;10.82;;;;;;;;;;5095389;28;20043;-62
2021/05/14 07:48:59;;;;;;;12.48;10.27;;;;;;;;;;5094001;28;20104;-62
2021/05/14 07:51:25;;;;;;;8.68;7.30;;;;;;;;;;5095432;28;20020;-62
2021/05/14 07:53:50;;;;;;;10.75;9.65;;;;;;;;;;5094574;28;20109;-62
2021/05/14 07:56:16;;;;;;;12.30;10.52;;;;;;;;;;5095292;28;20020;-62
2021/05/14 07:58:41;;;;;;;11.15;10.00;;;;;;;;;;5095434;28;20035;-62
2021/05/14 08:01:07;;;;;;;10.95;8.70;;;;;;;;;;5095255;28;20019;-62
2021/05/14 08:03:32;;;;;;;9.80;8.20;;;;;;;;;;5095309;28;20028;-62
2021/05/14 08:05:58;;;;;;;10.40;9.40;;;;;;;;;;5095095;28;20393;-62
2021/05/14 08:08:24;;;;;;;8.27;7.47;;;;;;;;;;5095132;28;20028;-62
2021/05/14 08:10:56;;;;;;;10.10;8.68;;;;;;;;;;5094945;28;20020;-62
2021/05/14 08:13:22;;;;;;;9.43;8.02;;;;;;;;;;5093636;28;20478;-62
2021/05/14 08:15:48;;;;;;;11.00;9.88;;;;;;;;;;5076965;28;20481;-62
2021/05/14 08:18:14;;;;;;;8.07;7.22;;;;;;;;;;5094873;28;20051;-62
2021/05/14 08:20:41;;;;;;;8.48;6.85;;;;;;;;;;5093565;28;20119;-62
2021/05/14 08:23:07;;;;;;;8.55;7.68;;;;;;;;;;5094567;28;20024;-62
2021/05/14 08:25:35;;;;;;;11.05;10.05;;;;;;;;;;5094921;28;20027;-62
2021/05/14 08:28:00;;;;;;;10.32;8.90;;;;;;;;;;5093397;28;20036;-62
2021/05/14 08:30:26;;;;;;;10.85;9.75;;;;;;;;;;5094631;28;20104;-62
2021/05/14 08:32:52;;;;;;;9.05;7.93;;;;;;;;;;5093362;28;20028;-62
2021/05/14 08:35:17;;;;;;;10.02;9.00;;;;;;;;;;5094390;28;20525;-62
2021/05/14 08:37:46;;;;;;;9.35;8.45;;;;;;;;;;5094487;28;20031;-62
2021/05/14 08:40:12;;;;;;;6.50;5.85;;;;;;;;;;5093130;28;20024;-62
2021/05/14 08:42:41;;;;;;;9.82;8.82;;;;;;;;;;5094367;28;20021;-62
2021/05/14 08:45:07;;;;;;;7.00;5.40;;;;;;;;;;5094478;28;20488;-62
2021/05/14 08:47:33;;;;;;;6.32;5.78;;;;;;;;;;5092954;28;20118;-62
2021/05/14 08:49:59;;;;;;;8.10;7.40;;;;;;;;;;5094386;28;20103;-62
2021/05/14 08:52:26;;;;;;;9.00;7.20;;;;;;;;;;5094258;28;20471;-62
2021/05/14 08:54:54;;;;;;;8.05;7.22;;;;;;;;;;5094198;28;20093;-62
2021/05/14 08:57:19;;;;;;;6.78;6.13;;;;;;;;;;5094093;28;20489;-62
2021/05/14 08:59:45;;;;;;;6.97;6.28;;;;;;;;;;5094052;28;20020;-62
2021/05/14 09:02:13;;;;;;;10.13;7.18;;;;;;;;;;5093003;28;20020;-62
2021/05/14 09:04:38;;;;;;;5.75;5.22;;;;;;;;;;5091894;28;20363;-62
2021/05/14 09:07:17;;;;;;;7.03;5.53;;;;;;;;;;5093332;28;20039;-62
2021/05/14 09:10:02;;;;;;;6.45;5.75;;;;;;;;;;5093479;28;20024;-62
2021/05/14 09:12:34;;;;;;;7.43;6.72;;;;;;;;;;5093123;28;20028;-62
2021/05/14 09:15:18;;;;;;;9.10;8.07;;;;;;;;;;5093304;28;20061;-62
2021/05/14 09:17:51;;;;;;;8.65;7.75;;;;;;;;;;5093382;28;20378;-62
2021/05/14 09:20:28;;;;;;;8.07;7.38;;;;;;;;;;5093851;28;20042;-62
2021/05/14 09:22:54;;;;;;;7.03;6.20;;;;;;;;;;5093778;28;20035;-62
2021/05/14 09:25:19;;;;;;;8.35;5.78;;;;;;;;;;5093618;28;20028;-62
2021/05/14 09:27:45;;;;;;;7.20;6.10;;;;;;;;;;5093484;28;20081;-62
2021/05/14 09:30:11;;;;;;;5.53;5.03;;;;;;;;;;5093461;28;20110;-62
2021/05/14 09:32:38;;;;;;;7.93;6.05;;;;;;;;;;5093529;28;20182;-62
2021/05/14 09:35:04;;;;;;;6.68;6.07;;;;;;;;;;5093467;28;20052;-62
2021/05/14 09:37:31;;;;;;;5.88;5.38;;;;;;;;;;5093484;28;20413;-62
2021/05/14 09:40:15;;;;;;;8.50;7.40;;;;;;;;;;5093443;28;20076;-62
2021/05/14 09:42:40;;;;;;;7.43;6.75;;;;;;;;;;5093442;28;20024;-62
2021/05/14 09:45:22;;;;;;;7.68;7.03;;;;;;;;;;5093429;28;20069;-62
2021/05/14 09:47:58;;;;;;;7.93;7.13;;;;;;;;;;5093156;28;20111;-62
2021/05/14 09:50:29;;;;;;;6.43;5.45;;;;;;;;;;5093327;28;20039;-62
2021/05/14 09:52:54;;;;;;;;;;;;;;;;;;5093772;28;20497;-62
2021/05/14 09:55:23;;;;;;;7.75;7.05;;;;;;;;;;5075149;28;19946;-62
2021/05/14 09:57:53;;;;;;;6.00;5.43;;;;;;;;;;5093305;28;20063;-62
2021/05/14 10:00:19;;;;;;;6.10;5.57;;;;;;;;;;5093286;28;20501;-62
2021/05/14 10:02:46;;;;;;;7.45;6.75;;;;;;;;;;5093236;28;20028;-61
2021/05/14 10:05:13;;;;;;;6.47;5.82;;;;;;;;;;5093112;28;20020;-61
2021/05/14 10:07:40;;;;;;;7.80;6.38;;;;;;;;;;5093023;28;20119;-62
2021/05/14 10:10:08;;;;;;;9.40;8.32;;;;;;;;;;5093093;28;20012;-62
2021/05/14 10:12:34;;;;;;;9.63;8.63;;;;;;;;;;5092792;28;20028;-63
2021/05/14 10:15:01;;;;;;;8.65;7.80;;;;;;;;;;5093151;28;20032;-62
2021/05/14 10:17:26;;;;;;;7.60;6.90;;;;;;;;;;5094742;28;20020;-62
2021/05/14 10:19:53;;;;;;;8.63;7.75;;;;;;;;;;5097295;28;20019;-62
2021/05/14 10:22:19;;;;;;;12.35;9.30;;;;;;;;;;5097170;28;20028;-62
2021/05/14 10:24:51;;;;;;;9.45;7.93;;;;;;;;;;5096969;28;20026;-62
2021/05/14 10:27:30;;;;;;;5.80;5.28;;;;;;;;;;5095809;28;20024;-62
2021/05/14 10:29:59;;;;;;;9.27;8.40;;;;;;;;;;5096961;28;20436;-62
2021/05/14 10:32:43;;;;;;;9.05;8.10;;;;;;;;;;5097138;28;20470;-62
2021/05/14 10:35:09;;;;;;;7.75;7.03;;;;;;;;;;5095734;28;20060;-62
2021/05/14 10:37:44;;;;;;;8.63;7.13;;;;;;;;;;5095591;28;20035;-62
2021/05/14 10:40:28;;;;;;;9.48;7.45;;;;;;;;;;5096680;28;20474;-62
2021/05/14 10:42:54;;;;;;;16.17;9.38;;;;;;;;;;5096716;28;20059;-62
2021/05/14 10:45:38;;;;;;;11.32;8.15;;;;;;;;;;5096705;28;20048;-62
2021/05/14 10:48:04;;;;;;;9.55;7.97;;;;;;;;;;5095577;28;20090;-62
2021/05/14 10:50:42;;;;;;;10.52;8.60;;;;;;;;;;5096929;28;20114;-62
2021/05/14 10:53:26;;;;;;;10.15;9.25;;;;;;;;;;5096981;28;20365;-62
2021/05/14 10:55:52;;;;;;;8.27;7.32;;;;;;;;;;5096863;28;20462;-63
2021/05/14 10:58:35;;;;;;;7.30;6.60;;;;;;;;;;5097001;28;20019;-63
2021/05/14 11:01:01;;;;;;;9.60;7.93;;;;;;;;;;5096495;28;20028;-63
2021/05/14 11:03:31;;;;;;;8.50;7.70;;;;;;;;;;5096530;28;20392;-63
2021/05/14 11:06:08;;;;;;;7.93;7.10;;;;;;;;;;5096401;28;20059;-62
2021/05/14 11:08:34;;;;;;;8.82;7.85;;;;;;;;;;5096900;28;20056;-62
2021/05/14 11:11:00;;;;;;;7.38;6.55;;;;;;;;;;5096566;28;20059;-62
2021/05/14 11:13:42;;;;;;;9.43;8.52;;;;;;;;;;5096089;28;20027;-62
2021/05/14 11:16:27;;;;;;;7.72;6.90;;;;;;;;;;5096410;28;20020;-62
2021/05/14 11:18:53;;;;;;;7.97;6.72;;;;;;;;;;5096485;28;20028;-63
2021/05/14 11:21:19;;;;;;;8.95;8.05;;;;;;;;;;5094679;28;20012;-63
2021/05/14 11:23:44;;;;;;;9.73;8.73;;;;;;;;;;5094740;28;20032;-62
2021/05/14 11:26:17;;;;;;;10.63;8.13;;;;;;;;;;5078065;28;20134;-62
2021/05/14 11:28:44;;;;;;;8.65;7.50;;;;;;;;;;5095248;28;20035;-62
2021/05/14 11:31:14;;;;;;;7.82;7.07;;;;;;;;;;5096106;28;20052;-62
2021/05/14 11:33:43;;;;;;;10.13;9.13;;;;;;;;;;5095546;28;20427;-63
2021/05/14 11:36:09;;;;;;;8.45;6.53;;;;;;;;;;5096412;28;20056;-62
2021/05/14 11:38:35;;;;;;;10.85;6.95;;;;;;;;;;5095578;28;20426;-62
2021/05/14 11:41:02;;;;;;;9.65;7.93;;;;;;;;;;5095972;28;20508;-62
2021/05/14 11:43:29;;;;;;;8.77;7.32;;;;;;;;;;5095990;28;20348;-62
2021/05/14 11:45:55;;;;;;;7.13;6.30;;;;;;;;;;5096043;28;20031;-63
2021/05/14 11:48:22;;;;;;;4.70;4.38;;;;;;;;;;5095462;28;20465;-63
2021/05/14 11:50:48;;;;;;;6.45;5.88;;;;;;;;;;5095914;28;20055;-63
2021/05/14 11:53:14;;;;;;;5.47;4.88;;;;;;;;;;5094638;28;20110;-62
2021/05/14 11:55:42;;;;;;;7.60;6.88;;;;;;;;;;5095505;28;20028;-62
2021/05/14 11:58:07;;;;;;;6.03;5.53;;;;;;;;;;5095381;28;20485;-62
2021/05/14 12:00:41;;;;;;;5.20;4.78;;;;;;;;;;5094936;28;20028;-63
2021/05/14 12:03:16;;;;;;;10.95;7.65;;;;;;;;;;5095301;28;20068;-62
2021/05/14 12:05:42;;;;;;;6.63;5.32;;;;;;;;;;5095458;28;20066;-62
2021/05/14 12:08:09;;;;;;;5.97;5.35;;;;;;;;;;5095491;28;20485;-62
2021/05/14 12:10:43;;;;;;;7.13;6.45;;;;;;;;;;5093922;28;20032;-62
2021/05/14 12:13:11;;;;;;;5.97;5.47;;;;;;;;;;5095220;28;20036;-62
2021/05/14 12:15:38;;;;;;;6.22;5.63;;;;;;;;;;5095037;28;20016;-63
2021/05/14 12:18:03;;;;;;;5.95;5.38;;;;;;;;;;5095035;28;20028;-62
2021/05/14 12:20:30;;;;;;;6.20;5.65;;;;;;;;;;5094927;28;20404;-62
2021/05/14 12:23:00;;;;;;;5.72;5.22;;;;;;;;;;5094890;28;20028;-62
2021/05/14 12:25:26;;;;;;;7.77;5.30;;;;;;;;;;5094960;28;20062;-63
2021/05/14 12:27:52;;;;;;;4.93;4.53;;;;;;;;;;5094727;28;20363;-62
2021/05/14 12:30:17;;;;;;;4.75;4.38;;;;;;;;;;5093668;28;20073;-62
2021/05/14 12:32:56;;;;;;;5.40;5.00;;;;;;;;;;5094792;28;20028;-62
2021/05/14 12:35:22;;;;;;;5.18;4.68;;;;;;;;;;5093514;28;20040;-62
2021/05/14 12:37:54;;;;;;;5.25;4.30;;;;;;;;;;5094798;28;20423;-62
2021/05/14 12:40:29;;;;;;;5.47;4.38;;;;;;;;;;5094446;28;20043;-62
2021/05/14 12:43:04;;;;;;;5.53;4.55;;;;;;;;;;5093375;28;20085;-62
2021/05/14 12:45:30;;;;;;;7.25;6.55;;;;;;;;;;5094857;28;20491;-62
2021/05/14 12:47:56;;;;;;;5.53;4.97;;;;;;;;;;5094828;28;20085;-62
2021/05/14 12:50:25;;;;;;;6.15;5.47;;;;;;;;;;5093354;28;20062;-62
2021/05/14 12:52:51;;;;;;;5.13;4.72;;;;;;;;;;5094555;28;20478;-62
2021/05/14 12:55:17;;;;;;;4.75;4.35;;;;;;;;;;5094112;28;20035;-62
2021/05/14 12:57:45;;;;;;;4.90;4.53;;;;;;;;;;5094426;28;20016;-62
2021/05/14 13:00:14;;;;;;;4.40;4.10;;;;;;;;;;5094529;28;20028;-62
2021/05/14 13:02:39;;;;;;;4.40;4.00;;;;;;;;;;5094447;28;20046;-62
2021/05/14 13:05:06;;;;;;;5.63;5.13;;;;;;;;;;5094463;28;20024;-62
2021/05/14 13:07:32;;;;;;;5.38;4.93;;;;;;;;;;5092949;28;20016;-62
2021/05/14 13:09:58;;;;;;;4.35;3.95;;;;;;;;;;5094332;28;20021;-62
2021/05/14 13:12:24;;;;;;;7.15;6.45;;;;;;;;;;5094228;28;20016;-62
2021/05/14 13:14:50;;;;;;;3.15;2.90;;;;;;;;;;5094047;28;20028;-62
2021/05/14 13:17:15;;;;;;;6.28;5.53;;;;;;;;;;5094068;28;20012;-61
2021/05/14 13:19:41;;;;;;;7.88;6.90;;;;;;;;;;5094092;28;20470;-62
2021/05/14 13:22:07;;;;;;;6.35;5.53;;;;;;;;;;5094161;28;20024;-62
2021/05/14 13:24:33;;;;;;;3.97;3.65;;;;;;;;;;5094011;28;20036;-62
2021/05/14 13:26:58;;;;;;;7.88;7.10;;;;;;;;;;5094046;28;20077;-62
2021/05/14 13:29:24;;;;;;;8.00;7.20;;;;;;;;;;5093925;28;20056;-62
2021/05/14 13:31:49;;;;;;;5.40;4.90;;;;;;;;;;5094090;28;20473;-62
2021/05/14 13:34:15;;;;;;;8.85;7.95;;;;;;;;;;5093287;28;20040;-61
2021/05/14 13:36:41;;;;;;;7.57;6.65;;;;;;;;;;5094061;28;20058;-61
2021/05/14 13:39:06;;;;;;;8.30;7.47;;;;;;;;;;5093965;28;20031;-61
2021/05/14 13:41:33;;;;;;;7.72;6.93;;;;;;;;;;5093830;28;20024;-62
2021/05/14 13:44:00;;;;;;;10.52;9.05;;;;;;;;;;5093855;28;20073;-62
2021/05/14 13:46:26;;;;;;;7.75;6.75;;;;;;;;;;5093627;28;20024;-61
2021/05/14 13:48:51;;;;;;;8.48;7.68;;;;;;;;;;5093289;28;20023;-62
2021/05/14 13:51:17;;;;;;;8.52;7.72;;;;;;;;;;5091880;28;20032;-62
2021/05/14 13:53:43;;;;;;;13.02;9.25;;;;;;;;;;5093314;28;20095;-62
2021/05/14 13:56:08;;;;;;;6.07;5.53;;;;;;;;;;5093720;28;20027;-61
2021/05/14 13:58:33;;;;;;;7.18;6.55;;;;;;;;;;5093716;28;20359;-61
2021/05/14 14:00:59;;;;;;;8.20;7.20;;;;;;;;;;5093583;28;20512;-62
2021/05/14 14:03:24;;;;;;;7.55;6.75;;;;;;;;;;5092213;28;20031;-62
2021/05/14 14:05:50;;;;;;;9.65;8.65;;;;;;;;;;5093724;28;20116;-62
2021/05/14 14:08:15;;;;;;;6.78;6.05;;;;;;;;;;5093586;28;20040;-62
2021/05/14 14:10:41;;;;;;;9.77;8.82;;;;;;;;;;5093161;28;20035;-62
2021/05/14 14:13:11;;;;;;;9.75;8.85;;;;;;;;;;5093465;28;20020;-62
2021/05/14 14:15:39;;;;;;;8.57;7.78;;;;;;;;;;5093660;28;20490;-62
2021/05/14 14:18:05;;;;;;;5.95;5.45;;;;;;;;;;5093404;28;20020;-62
2021/05/14 14:20:31;;;;;;;7.05;6.20;;;;;;;;;;5091829;28;20052;-62
2021/05/14 14:22:56;;;;;;;6.57;5.53;;;;;;;;;;5093149;28;20439;-62
2021/05/14 14:25:22;;;;;;;6.88;5.75;;;;;;;;;;5093305;28;20036;-62
2021/05/14 14:27:47;;;;;;;13.30;7.32;;;;;;;;;;5093453;28;20385;-62
2021/05/14 14:30:13;;;;;;;7.35;6.65;;;;;;;;;;5093515;28;20059;-62